createdAt,value
2023-02-13T22:22:20.990Z,62.00
2023-02-13T22:24:47.766Z,63.60
2023-02-13T22:27:14.575Z,65.00
2023-02-13T22:29:41.346Z,65.20
2023-02-13T22:32:08.158Z,65.10
2023-02-13T22:34:35.014Z,64.80
2023-02-13T22:37:01.715Z,64.30
2023-02-13T22:39:28.607Z,64.60
2023-02-13T22:41:58.238Z,64.00
2023-02-13T22:44:25.010Z,63.20
2023-02-13T22:46:51.707Z,63.00
2023-02-13T22:49:18.415Z,62.50
2023-02-13T22:51:45.154Z,62.00
2023-02-13T22:54:12.046Z,61.70
2023-02-13T22:56:38.760Z,61.30
2023-02-13T22:59:05.453Z,60.90
2023-02-13T23:01:32.183Z,60.60
2023-02-13T23:03:59.048Z,60.30
2023-02-13T23:06:26.824Z,60.10
2023-02-13T23:08:54.054Z,59.70
2023-02-13T23:11:42.085Z,59.60
2023-02-13T23:14:10.300Z,59.40
2023-02-13T23:16:57.238Z,59.10
2023-02-13T23:19:25.586Z,58.90
2023-02-13T23:21:52.284Z,58.80
2023-02-13T23:24:19.099Z,58.70
2023-02-13T23:26:45.888Z,58.50
2023-02-13T23:29:12.751Z,58.30
2023-02-13T23:31:39.571Z,58.20
2023-02-13T23:34:06.408Z,58.20
2023-02-13T23:36:34.164Z,58.10
2023-02-13T23:39:00.937Z,57.90
2023-02-13T23:41:28.513Z,58.40
2023-02-13T23:43:55.328Z,57.50
2023-02-13T23:46:22.140Z,57.50
2023-02-13T23:48:48.849Z,57.30
2023-02-13T23:51:15.610Z,57.10
2023-02-13T23:53:42.301Z,56.70
2023-02-13T23:56:09.163Z,56.40
2023-02-13T23:58:36.157Z,56.40
